createdAt,value
2022-12-25T00:02:18.192Z,94811.06
2022-12-25T00:04:46.305Z,94825.69
2022-12-25T00:07:14.393Z,94832.03
2022-12-25T00:09:43.862Z,94820.47
2022-12-25T00:12:12.024Z,94844.63
2022-12-25T00:14:40.078Z,94845.00
2022-12-25T00:17:08.086Z,94833.09
2022-12-25T00:19:36.082Z,94855.03
2022-12-25T00:22:04.318Z,94852.66
2022-12-25T00:24:32.586Z,94853.34
2022-12-25T00:27:02.177Z,94854.78
2022-12-25T00:29:30.449Z,94862.38
2022-12-25T00:31:58.492Z,94862.22
2022-12-25T00:34:26.592Z,94861.81
2022-12-25T00:36:55.017Z,94866.97
2022-12-25T00:39:23.029Z,94856.09
2022-12-25T00:42:08.719Z,94869.09
2022-12-25T00:44:38.219Z,94871.31
2022-12-25T00:47:06.422Z,94868.56
2022-12-25T00:49:34.669Z,94866.44
2022-12-25T00:52:02.817Z,94872.28
2022-12-25T00:54:30.899Z,94880.63
2022-12-25T00:56:59.031Z,94887.41
2022-12-25T00:59:27.293Z,94869.50
2022-12-25T01:02:17.520Z,94868.28
2022-12-25T01:04:45.873Z,94864.50
2022-12-25T01:07:18.350Z,94856.72
2022-12-25T01:10:07.061Z,94854.06
2022-12-25T01:12:37.480Z,94856.81
2022-12-25T01:15:07.181Z,94854.22
2022-12-25T01:17:36.801Z,94854.88
2022-12-25T01:20:06.119Z,94853.59
2022-12-25T01:22:34.197Z,94858.31
2022-12-25T01:25:02.469Z,94872.06
2022-12-25T01:27:30.454Z,94876.41
2022-12-25T01:29:58.613Z,94868.81
2022-12-25T01:32:26.654Z,94866.81
2022-12-25T01:34:56.561Z,94861.19
2022-12-25T01:37:25.530Z,94870.56
2022-12-25T01:39:53.675Z,94868.56
2022-12-25T01:42:23.727Z,94866.09
2022-12-25T01:45:36.753Z,94871.53
2022-12-25T01:48:10.093Z,94871.66
2022-12-25T01:50:42.917Z,94865.84
2022-12-25T01:53:11.323Z,94872.22
2022-12-25T01:55:40.354Z,94860.72
2022-12-25T01:58:08.517Z,94867.13
2022-12-25T02:00:36.831Z,94869.97
2022-12-25T02:03:05.729Z,94874.44
2022-12-25T02:05:36.313Z,94873.22
2022-12-25T02:08:10.201Z,94876.06
2022-12-25T02:10:39.275Z,94875.00
2022-12-25T02:13:11.245Z,94875.16
2022-12-25T02:15:56.307Z,94865.13
2022-12-25T02:18:36.182Z,94876.53
2022-12-25T02:21:21.611Z,94881.03
2022-12-25T02:24:07.041Z,94876.28
2022-12-25T02:26:59.241Z,94862.97
2022-12-25T02:29:35.791Z,94873.56
2022-12-25T02:32:13.383Z,94880.06
2022-12-25T02:34:46.575Z,94873.44
2022-12-25T02:37:18.847Z,94860.16
2022-12-25T02:40:01.855Z,94875.88
2022-12-25T02:42:59.760Z,94867.63
2022-12-25T02:45:51.261Z,94874.41
2022-12-25T02:48:39.970Z,94866.41
2022-12-25T02:51:30.193Z,94886.34
2022-12-25T02:54:19.044Z,94880.56
2022-12-25T02:57:12.389Z,94881.19
2022-12-25T03:00:01.418Z,94883.38
2022-12-25T03:02:49.057Z,94883.41
2022-12-25T03:05:49.005Z,94899.16
2022-12-25T03:08:21.444Z,94883.41
2022-12-25T03:11:14.524Z,94896.84
2022-12-25T03:13:44.811Z,94896.50
2022-12-25T03:16:30.296Z,94893.38
2022-12-25T03:19:00.934Z,94913.34
2022-12-25T03:21:46.845Z,94912.00
2022-12-25T03:24:32.302Z,94910.59
2022-12-25T03:27:00.375Z,94903.84
2022-12-25T03:29:49.279Z,94917.41
2022-12-25T03:32:24.085Z,94912.00
2022-12-25T03:35:22.192Z,94912.28
2022-12-25T03:38:16.740Z,94907.38
2022-12-25T03:41:15.727Z,94919.44
2022-12-25T03:44:10.354Z,94899.88
2022-12-25T03:47:03.229Z,94909.66
2022-12-25T03:49:53.680Z,94926.63
2022-12-25T03:52:41.013Z,94927.72
2022-12-25T03:55:28.961Z,94917.81
2022-12-25T03:58:14.657Z,94927.47
2022-12-25T04:01:00.468Z,94937.22
2022-12-25T04:03:46.033Z,94929.34
2022-12-25T04:06:31.524Z,94944.13
2022-12-25T04:09:18.377Z,94932.75
2022-12-25T04:12:03.683Z,94933.28
2022-12-25T04:14:49.421Z,94942.53
2022-12-25T04:17:35.300Z,94951.88
2022-12-25T04:20:20.676Z,94943.72
2022-12-25T04:23:06.133Z,94940.31
2022-12-25T04:25:53.104Z,94951.06
2022-12-25T04:28:38.685Z,94956.63
2022-12-25T04:31:25.073Z,94971.44
2022-12-25T04:34:10.472Z,94974.81
2022-12-25T04:36:38.637Z,94980.66
2022-12-25T04:39:06.805Z,94967.06
2022-12-25T04:41:36.288Z,94977.94
2022-12-25T04:44:04.590Z,94975.22
2022-12-25T04:46:32.704Z,94984.59
2022-12-25T04:49:00.839Z,94988.00
2022-12-25T04:51:28.876Z,94970.84
2022-12-25T04:53:57.766Z,94972.34
2022-12-25T04:56:25.795Z,94983.91
2022-12-25T04:58:55.151Z,94970.31
2022-12-25T05:01:23.494Z,94985.53
2022-12-25T05:03:51.645Z,94983.75
2022-12-25T05:06:19.710Z,94954.41
2022-12-25T05:08:47.794Z,94961.06
2022-12-25T05:11:16.942Z,94973.84
2022-12-25T05:13:45.536Z,94960.28
2022-12-25T05:16:17.499Z,94968.69
2022-12-25T05:18:46.298Z,94986.75
2022-12-25T05:21:14.477Z,94975.59
2022-12-25T05:23:48.651Z,94984.69
2022-12-25T05:26:19.753Z,94992.97
2022-12-25T05:28:48.032Z,94973.41
2022-12-25T05:31:18.306Z,94981.13
2022-12-25T05:33:46.734Z,94982.59
2022-12-25T05:36:14.731Z,95001.75
2022-12-25T05:38:42.701Z,94981.66
2022-12-25T05:41:11.060Z,95000.69
2022-12-25T05:43:39.116Z,95008.59
2022-12-25T05:46:07.679Z,95015.13
2022-12-25T05:48:38.612Z,95009.97
2022-12-25T05:51:07.579Z,95009.97
2022-12-25T05:53:36.398Z,95010.53
2022-12-25T05:56:05.712Z,95016.94
2022-12-25T05:58:35.120Z,95013.78
2022-12-25T06:01:03.726Z,95029.56
2022-12-25T06:03:31.974Z,95032.47
2022-12-25T06:06:04.370Z,95041.84
2022-12-25T06:08:32.495Z,95038.59
2022-12-25T06:11:00.524Z,95049.19
2022-12-25T06:13:28.745Z,95040.50
2022-12-25T06:15:56.854Z,95056.13
2022-12-25T06:18:24.958Z,95049.59
2022-12-25T06:20:53.169Z,95061.28
2022-12-25T06:23:22.782Z,95051.78
2022-12-25T06:25:50.839Z,95065.78
2022-12-25T06:28:18.863Z,95084.50
2022-12-25T06:30:48.219Z,95070.13
2022-12-25T06:33:16.219Z,95086.72
2022-12-25T06:35:44.299Z,95082.22
2022-12-25T06:38:13.051Z,95088.78
2022-12-25T06:40:42.487Z,95094.50
2022-12-25T06:43:10.579Z,95102.25
2022-12-25T06:45:38.548Z,95097.59
2022-12-25T06:48:06.950Z,95096.94
2022-12-25T06:50:35.065Z,95084.69
2022-12-25T06:53:03.725Z,95106.84
2022-12-25T06:55:31.718Z,95104.69
2022-12-25T06:58:01.228Z,95119.34
2022-12-25T07:00:29.300Z,95100.47
2022-12-25T07:02:57.544Z,95112.16
2022-12-25T07:05:25.853Z,95130.09
2022-12-25T07:07:54.299Z,95141.78
2022-12-25T07:10:22.354Z,95142.19
2022-12-25T07:12:50.384Z,95134.44
2022-12-25T07:15:19.863Z,95129.84
2022-12-25T07:17:48.130Z,95129.97
2022-12-25T07:20:16.213Z,95141.53
2022-12-25T07:22:44.273Z,95141.41
2022-12-25T07:25:12.232Z,95137.44
2022-12-25T07:27:41.284Z,95144.66
2022-12-25T07:30:11.093Z,95153.09
2022-12-25T07:32:44.279Z,95146.41
2022-12-25T07:35:15.592Z,95151.03
2022-12-25T07:37:43.643Z,95165.22
2022-12-25T07:40:12.330Z,95179.19
2022-12-25T07:42:40.393Z,95157.16
2022-12-25T07:45:09.908Z,95174.16
2022-12-25T07:47:37.905Z,95184.91
2022-12-25T07:50:08.814Z,95193.06
2022-12-25T07:52:43.229Z,95197.69
2022-12-25T07:55:12.085Z,95195.50
2022-12-25T07:57:40.262Z,95203.66
2022-12-25T08:00:11.260Z,95194.56
2022-12-25T08:02:39.427Z,95200.41
2022-12-25T08:05:10.051Z,95209.50
2022-12-25T08:07:38.596Z,95212.38
2022-12-25T08:10:07.717Z,95196.69
2022-12-25T08:12:35.767Z,95210.44
2022-12-25T08:15:04.226Z,95210.72
2022-12-25T08:17:32.234Z,95203.22
2022-12-25T08:20:00.303Z,95221.19
2022-12-25T08:22:29.957Z,95204.13
2022-12-25T08:24:57.986Z,95201.25
2022-12-25T08:27:26.336Z,95191.03
2022-12-25T08:29:54.483Z,95205.16
2022-12-25T08:32:22.897Z,95200.53
2022-12-25T08:34:53.590Z,95195.44
2022-12-25T08:37:21.753Z,95195.88
2022-12-25T08:39:51.646Z,95198.28
2022-12-25T08:42:19.822Z,95206.22
2022-12-25T08:44:47.871Z,95208.06
2022-12-25T08:47:16.102Z,95209.25
2022-12-25T08:49:44.151Z,95221.13
2022-12-25T08:52:12.596Z,95219.78
2022-12-25T08:54:40.846Z,95221.34
2022-12-25T08:57:10.284Z,95213.38
2022-12-25T08:59:38.592Z,95206.00
2022-12-25T09:02:06.931Z,95230.44
2022-12-25T09:04:35.377Z,95229.84
2022-12-25T09:07:04.552Z,95210.69
2022-12-25T09:09:32.993Z,95222.78
2022-12-25T09:12:01.124Z,95229.28
2022-12-25T09:14:31.671Z,95242.22
2022-12-25T09:16:59.725Z,95215.53
2022-12-25T09:19:28.827Z,95235.72
2022-12-25T09:21:56.917Z,95214.47
2022-12-25T09:24:25.411Z,95224.00
2022-12-25T09:26:53.539Z,95255.81
2022-12-25T09:29:21.537Z,95237.19
2022-12-25T09:31:50.982Z,95237.19
2022-12-25T09:34:19.302Z,95248.13
2022-12-25T09:36:47.465Z,95229.81
2022-12-25T09:39:15.597Z,95238.47
2022-12-25T09:41:55.312Z,95233.31
2022-12-25T09:44:30.502Z,95217.19
2022-12-25T09:47:12.913Z,95224.06
2022-12-25T09:49:46.196Z,95230.72
2022-12-25T09:52:18.128Z,95243.28
2022-12-25T09:54:54.774Z,95236.63
2022-12-25T09:57:22.823Z,95208.94
2022-12-25T09:59:50.961Z,95221.81
2022-12-25T10:02:37.781Z,95209.19
2022-12-25T10:05:20.869Z,95214.91
2022-12-25T10:07:58.517Z,95214.59
2022-12-25T10:10:49.969Z,95201.88
2022-12-25T10:13:48.270Z,95218.16
2022-12-25T10:16:26.675Z,95208.84
2022-12-25T10:19:18.078Z,95199.75
2022-12-25T10:21:47.513Z,95194.41
2022-12-25T10:24:29.955Z,95199.59
2022-12-25T10:26:58.122Z,95195.34
2022-12-25T10:29:31.776Z,95206.19
2022-12-25T10:32:00.222Z,95198.63
2022-12-25T10:34:29.845Z,95202.31
2022-12-25T10:36:58.097Z,95187.94
2022-12-25T10:39:27.493Z,95206.97
2022-12-25T10:42:10.777Z,95199.78
2022-12-25T10:44:38.978Z,95211.56
2022-12-25T10:47:07.768Z,95203.47
2022-12-25T10:49:39.803Z,95190.41
2022-12-25T10:52:20.647Z,95199.81
2022-12-25T10:54:49.108Z,95191.69
2022-12-25T10:57:19.466Z,95205.81
2022-12-25T10:59:49.260Z,95210.81
2022-12-25T11:02:23.276Z,95194.22
2022-12-25T11:04:59.439Z,95220.38
2022-12-25T11:07:27.866Z,95196.47
2022-12-25T11:10:04.632Z,95213.38
2022-12-25T11:12:42.959Z,95209.88
2022-12-25T11:15:35.923Z,95186.59
2022-12-25T11:18:04.238Z,95187.38
2022-12-25T11:20:34.228Z,95205.88
2022-12-25T11:23:02.368Z,95195.06
2022-12-25T11:25:30.533Z,95198.25
2022-12-25T11:28:00.416Z,95197.44
2022-12-25T11:30:30.315Z,95198.59
2022-12-25T11:33:02.497Z,95197.47
2022-12-25T11:35:39.964Z,95208.38
2022-12-25T11:38:10.603Z,95193.75
2022-12-25T11:40:45.937Z,95189.03
2022-12-25T11:43:21.132Z,95222.78
2022-12-25T11:45:53.348Z,95214.78
2022-12-25T11:48:27.578Z,95199.69
2022-12-25T11:51:00.654Z,95202.16
2022-12-25T11:53:32.993Z,95195.56
2022-12-25T11:56:07.464Z,95213.44
2022-12-25T11:58:42.085Z,95208.22
2022-12-25T12:01:18.903Z,95216.91
2022-12-25T12:03:47.273Z,95195.22
2022-12-25T12:06:21.549Z,95206.66
2022-12-25T12:08:54.685Z,95188.72
2022-12-25T12:11:27.891Z,95198.81
2022-12-25T12:14:06.964Z,95196.88
2022-12-25T12:16:36.242Z,95199.38
2022-12-25T12:19:13.042Z,95207.56
2022-12-25T12:21:46.919Z,95193.69
2022-12-25T12:24:20.135Z,95202.66
2022-12-25T12:26:49.287Z,95191.78
2022-12-25T12:29:26.958Z,95210.22
2022-12-25T12:31:59.841Z,95208.81
2022-12-25T12:34:31.645Z,95212.34
2022-12-25T12:37:04.860Z,95203.00
2022-12-25T12:39:36.599Z,95228.84
2022-12-25T12:42:15.437Z,95216.59
2022-12-25T12:44:44.036Z,95215.63
2022-12-25T12:47:31.374Z,95215.44
2022-12-25T12:50:00.871Z,95222.13
2022-12-25T12:52:35.515Z,95212.16
2022-12-25T12:55:06.418Z,95232.34
2022-12-25T12:57:39.802Z,95222.59
2022-12-25T13:00:11.171Z,95225.38
2022-12-25T13:03:23.057Z,95237.97
2022-12-25T13:05:55.926Z,95226.19
2022-12-25T13:08:34.839Z,95223.88
2022-12-25T13:11:12.035Z,95217.25
2022-12-25T13:13:42.968Z,95218.53
2022-12-25T13:16:22.545Z,95226.88
2022-12-25T13:18:52.751Z,95212.06
2022-12-25T13:21:23.950Z,95227.63
2022-12-25T13:23:59.926Z,95225.25
2022-12-25T13:26:29.759Z,95234.38
2022-12-25T13:28:58.345Z,95224.06
2022-12-25T13:31:28.105Z,95221.38
2022-12-25T13:33:59.892Z,95218.88
2022-12-25T13:36:30.440Z,95227.72
2022-12-25T13:39:00.852Z,95218.63
2022-12-25T13:41:53.193Z,95233.31
2022-12-25T13:44:24.401Z,95230.13
2022-12-25T13:46:52.704Z,95244.66
2022-12-25T13:49:22.648Z,95235.81
2022-12-25T13:51:51.861Z,95238.25
2022-12-25T13:54:21.339Z,95223.03
2022-12-25T13:56:51.900Z,95240.78
2022-12-25T13:59:22.969Z,95233.16
2022-12-25T14:01:52.628Z,95242.78
2022-12-25T14:04:23.412Z,95249.63
2022-12-25T14:06:52.484Z,95247.19
2022-12-25T14:09:22.155Z,95250.63
2022-12-25T14:11:53.683Z,95246.25
2022-12-25T14:14:24.597Z,95255.34
2022-12-25T14:16:57.379Z,95251.78
2022-12-25T14:19:28.508Z,95250.03
2022-12-25T14:22:01.363Z,95255.06
2022-12-25T14:24:33.367Z,95264.34
2022-12-25T14:27:03.781Z,95264.28
2022-12-25T14:29:38.145Z,95252.50
2022-12-25T14:32:08.315Z,95262.88
2022-12-25T14:34:36.765Z,95245.75
2022-12-25T14:37:07.309Z,95258.69
2022-12-25T14:39:38.479Z,95266.66
2022-12-25T14:42:15.435Z,95246.63
2022-12-25T14:44:44.804Z,95255.03
2022-12-25T14:47:20.009Z,95255.50
2022-12-25T14:49:48.911Z,95260.19
2022-12-25T14:52:21.533Z,95268.06
2022-12-25T14:54:54.297Z,95262.38
2022-12-25T14:57:29.352Z,95250.81
2022-12-25T15:00:03.386Z,95261.72
2022-12-25T15:02:41.673Z,95261.72
2022-12-25T15:05:26.241Z,95259.25
2022-12-25T15:08:20.671Z,95243.13
2022-12-25T15:11:01.093Z,95250.59
2022-12-25T15:13:31.225Z,95261.28
2022-12-25T15:16:04.337Z,95263.53
2022-12-25T15:18:37.550Z,95257.81
2022-12-25T15:21:05.996Z,95268.53
2022-12-25T15:23:34.041Z,95266.06
2022-12-25T15:26:03.505Z,95276.31
2022-12-25T15:28:31.638Z,95281.63
2022-12-25T15:30:59.647Z,95282.63
2022-12-25T15:33:27.681Z,95276.91
2022-12-25T15:35:55.796Z,95285.81
2022-12-25T15:38:24.322Z,95293.25
2022-12-25T15:40:52.921Z,95291.38
2022-12-25T15:43:40.588Z,95301.47
2022-12-25T15:46:10.552Z,95307.56
2022-12-25T15:48:38.621Z,95294.78
2022-12-25T15:51:07.201Z,95286.69
2022-12-25T15:53:35.253Z,95304.06
2022-12-25T15:56:03.302Z,95300.13
2022-12-25T15:58:32.733Z,95304.66
2022-12-25T16:01:00.792Z,95294.09
2022-12-25T16:03:28.858Z,95312.00
2022-12-25T16:05:57.022Z,95301.88
2022-12-25T16:08:25.735Z,95317.81
2022-12-25T16:10:54.952Z,95322.78
2022-12-25T16:13:23.154Z,95307.38
2022-12-25T16:15:52.648Z,95314.72
2022-12-25T16:18:21.420Z,95308.63
2022-12-25T16:20:49.593Z,95317.59
2022-12-25T16:23:18.127Z,95316.91
2022-12-25T16:25:46.215Z,95306.63
2022-12-25T16:28:14.409Z,95302.09
2022-12-25T16:30:43.451Z,95322.03
2022-12-25T16:33:16.014Z,95317.28
2022-12-25T16:35:44.180Z,95306.81
2022-12-25T16:38:12.477Z,95324.53
2022-12-25T16:40:40.590Z,95324.81
2022-12-25T16:43:08.627Z,95320.06
2022-12-25T16:45:40.557Z,95320.34
2022-12-25T16:48:09.009Z,95321.63
2022-12-25T16:50:41.200Z,95317.00
2022-12-25T16:53:09.710Z,95334.56
2022-12-25T16:55:38.869Z,95323.78
2022-12-25T16:58:08.159Z,95344.88
2022-12-25T17:00:36.282Z,95346.81
2022-12-25T17:03:05.766Z,95339.31
2022-12-25T17:05:34.406Z,95341.47
2022-12-25T17:08:03.943Z,95338.66
2022-12-25T17:10:32.535Z,95352.50
2022-12-25T17:13:00.638Z,95358.69
2022-12-25T17:15:29.355Z,95351.88
2022-12-25T17:17:57.314Z,95364.44
2022-12-25T17:20:25.357Z,95370.97
2022-12-25T17:22:53.433Z,95353.94
2022-12-25T17:25:22.985Z,95364.03
2022-12-25T17:27:51.788Z,95368.13
2022-12-25T17:30:20.037Z,95358.59
2022-12-25T17:32:48.320Z,95374.69
2022-12-25T17:35:17.894Z,95373.88
2022-12-25T17:37:45.950Z,95371.69
2022-12-25T17:40:14.786Z,95382.22
2022-12-25T17:42:44.349Z,95386.59
2022-12-25T17:45:13.089Z,95391.25
2022-12-25T17:47:41.545Z,95367.00
2022-12-25T17:50:10.679Z,95390.84
2022-12-25T17:52:38.719Z,95399.28
2022-12-25T17:55:07.758Z,95389.91
2022-12-25T17:57:35.959Z,95400.00
2022-12-25T18:00:06.602Z,95385.84
2022-12-25T18:02:35.699Z,95386.25
2022-12-25T18:05:03.865Z,95391.84
2022-12-25T18:07:32.241Z,95389.50
2022-12-25T18:10:00.320Z,95390.59
2022-12-25T18:12:28.340Z,95390.88
2022-12-25T18:14:56.329Z,95388.97
2022-12-25T18:17:25.787Z,95390.88
2022-12-25T18:19:53.824Z,95401.38
2022-12-25T18:22:22.211Z,95387.06
2022-12-25T18:24:50.315Z,95390.19
2022-12-25T18:27:18.511Z,95377.16
2022-12-25T18:29:46.598Z,95388.44
2022-12-25T18:32:15.096Z,95385.88
2022-12-25T18:34:44.732Z,95382.88
2022-12-25T18:37:12.716Z,95396.78
2022-12-25T18:39:40.820Z,95398.66
2022-12-25T18:42:26.492Z,95402.78
2022-12-25T18:44:54.541Z,95399.78
2022-12-25T18:47:22.715Z,95392.97
2022-12-25T18:49:53.000Z,95386.41
2022-12-25T18:52:49.868Z,95401.13
2022-12-25T18:55:10.646Z,95397.84
2022-12-25T18:57:40.818Z,95394.16
2022-12-25T19:00:10.114Z,95394.16
2022-12-25T19:02:38.330Z,95389.69
2022-12-25T19:05:08.833Z,95406.84
2022-12-25T19:07:38.121Z,95404.97
2022-12-25T19:10:07.124Z,95394.44
2022-12-25T19:12:35.253Z,95392.53
2022-12-25T19:15:03.444Z,95402.34
2022-12-25T19:17:32.365Z,95394.31
2022-12-25T19:20:00.477Z,95398.41
2022-12-25T19:22:30.472Z,95399.22
2022-12-25T19:24:58.735Z,95391.97
2022-12-25T19:27:26.925Z,95407.50
2022-12-25T19:29:55.000Z,95396.59
2022-12-25T19:32:23.585Z,95400.72
2022-12-25T19:34:51.710Z,95406.56
2022-12-25T19:37:20.426Z,95417.72
2022-12-25T19:39:50.045Z,95417.72
2022-12-25T19:42:18.981Z,95408.41
2022-12-25T19:44:47.077Z,95408.16
2022-12-25T19:47:15.343Z,95427.50
2022-12-25T19:49:44.354Z,95419.06
2022-12-25T19:52:14.497Z,95411.19
2022-12-25T19:54:42.467Z,95422.75
2022-12-25T19:57:11.949Z,95412.41
2022-12-25T19:59:40.148Z,95413.50
2022-12-25T20:02:08.299Z,95413.22
2022-12-25T20:04:36.509Z,95416.50
2022-12-25T20:07:04.507Z,95418.25
2022-12-25T20:09:32.827Z,95408.59
2022-12-25T20:12:00.845Z,95403.25
2022-12-25T20:14:30.348Z,95404.31
2022-12-25T20:16:58.512Z,95405.59
2022-12-25T20:19:26.891Z,95392.91
2022-12-25T20:21:55.391Z,95395.59
2022-12-25T20:24:24.749Z,95406.19
2022-12-25T20:26:58.875Z,95406.16
2022-12-25T20:29:27.178Z,95398.75
2022-12-25T20:31:56.711Z,95412.22
2022-12-25T20:34:24.768Z,95414.06
2022-12-25T20:36:53.334Z,95411.44
2022-12-25T20:39:21.410Z,95418.56
2022-12-25T20:41:49.489Z,95414.25
2022-12-25T20:44:17.626Z,95411.44
2022-12-25T20:46:46.072Z,95417.84
2022-12-25T20:49:15.583Z,95412.50
2022-12-25T20:51:43.666Z,95413.78
2022-12-25T20:54:12.786Z,95393.78
2022-12-25T20:56:40.798Z,95410.72
2022-12-25T20:59:11.668Z,95404.63
2022-12-25T21:01:39.879Z,95414.03
2022-12-25T21:04:12.879Z,95414.88
2022-12-25T21:06:45.495Z,95419.78
2022-12-25T21:09:13.506Z,95416.53
2022-12-25T21:11:41.671Z,95426.59
2022-12-25T21:14:11.291Z,95417.34
2022-12-25T21:16:39.545Z,95415.69
2022-12-25T21:19:07.586Z,95424.03
2022-12-25T21:21:36.616Z,95427.41
2022-12-25T21:24:06.415Z,95415.97
2022-12-25T21:26:34.906Z,95412.09
2022-12-25T21:29:04.327Z,95413.84
2022-12-25T21:31:53.497Z,95412.09
2022-12-25T21:34:20.592Z,95389.97
2022-12-25T21:36:48.643Z,95409.53
2022-12-25T21:39:18.417Z,95406.94
2022-12-25T21:41:46.837Z,95397.94
2022-12-25T21:44:14.890Z,95396.56
2022-12-25T21:46:42.976Z,95412.56
2022-12-25T21:49:11.099Z,95393.97
2022-12-25T21:51:56.703Z,95383.44
2022-12-25T21:54:26.107Z,95396.19
2022-12-25T21:56:54.054Z,95382.03
2022-12-25T21:59:23.176Z,95398.78
2022-12-25T22:01:52.449Z,95407.00
2022-12-25T22:04:22.429Z,95402.66
2022-12-25T22:07:07.610Z,95386.72
2022-12-25T22:09:37.952Z,95394.78
2022-12-25T22:12:27.275Z,95375.16
2022-12-25T22:15:02.986Z,95394.22
2022-12-25T22:17:50.382Z,95396.56
2022-12-25T22:20:20.306Z,95388.34
2022-12-25T22:22:48.538Z,95392.22
2022-12-25T22:25:18.992Z,95404.84
2022-12-25T22:27:48.438Z,95393.03
2022-12-25T22:30:18.942Z,95405.78
2022-12-25T22:32:47.416Z,95402.38
2022-12-25T22:35:16.482Z,95392.13
2022-12-25T22:37:45.163Z,95400.25
2022-12-25T22:40:15.919Z,95400.50
2022-12-25T22:42:45.527Z,95388.78
2022-12-25T22:45:13.807Z,95408.34
2022-12-25T22:47:42.514Z,95406.25
2022-12-25T22:50:11.922Z,95389.41
2022-12-25T22:52:40.214Z,95406.97
2022-12-25T22:55:10.264Z,95411.84
2022-12-25T22:57:38.753Z,95398.78
2022-12-25T23:00:09.953Z,95410.13
2022-12-25T23:02:38.191Z,95385.19
2022-12-25T23:05:07.393Z,95403.56
2022-12-25T23:07:35.444Z,95409.09
2022-12-25T23:10:03.397Z,95402.75
2022-12-25T23:12:48.617Z,95414.41
2022-12-25T23:15:18.233Z,95421.09
2022-12-25T23:18:03.679Z,95416.00
2022-12-25T23:20:49.599Z,95393.88
2022-12-25T23:23:35.828Z,95411.31
2022-12-25T23:26:10.265Z,95409.28
2022-12-25T23:28:57.625Z,95388.44
2022-12-25T23:31:30.058Z,95402.50
2022-12-25T23:33:58.360Z,95405.53
2022-12-25T23:36:26.474Z,95411.22
2022-12-25T23:38:54.570Z,95410.88
2022-12-25T23:41:22.709Z,95388.50
2022-12-25T23:43:50.952Z,95409.63
2022-12-25T23:46:18.981Z,95426.56
2022-12-25T23:48:48.853Z,95421.00
2022-12-25T23:51:16.863Z,95429.88
2022-12-25T23:53:44.880Z,95424.06
2022-12-25T23:56:13.400Z,95433.84
2022-12-25T23:58:41.685Z,95414.97
